Time;durP1;ratioP1;P1;durP2;ratioP2;P2;SDS_P1;SDS_P2;PMS_P1;PMS_P2;Temp;Humidity;BMP_temperature;BMP_pressure;BME280_temperature;BME280_humidity;BME280_pressure;Samples;Min_cycle;Max_cycle;Signal;HPM_P1;HPM_P2
2023/05/01 00:02:07;;;;;;;4.18;3.58;;;;;;;12.98;84.52;64313.25;5049408;28;20283;-56
2023/05/01 00:04:33;;;;;;;4.70;4.20;;;;;;;12.95;84.08;64311.97;5050785;28;20603;-55
2023/05/01 00:06:58;;;;;;;5.50;4.18;;;;;;;12.92;84.92;64308.66;5050594;28;20193;-58
2023/05/01 00:09:26;;;;;;;4.43;4.03;;;;;;;12.95;85.39;64315.03;5050491;28;20634;-57
2023/05/01 00:11:52;;;;;;;4.40;3.85;;;;;;;13.03;84.99;64318.75;5050597;28;20185;-56
2023/05/01 00:14:17;;;;;;;6.72;3.75;;;;;;;13.01;84.84;64316.53;5050383;28;20235;-57
2023/05/01 00:16:44;;;;;;;5.18;4.30;;;;;;;13.07;83.89;64327.69;5050548;28;20185;-59
2023/05/01 00:19:11;;;;;;;5.40;4.10;;;;;;;12.96;84.81;64313.03;5050326;28;20264;-58
2023/05/01 00:21:36;;;;;;;4.43;3.87;;;;;;;12.88;85.52;64307.34;5050390;28;20677;-61
2023/05/01 00:24:02;;;;;;;4.70;3.88;;;;;;;13.04;84.32;64324.94;5050776;28;20221;-60
2023/05/01 00:26:30;;;;;;;4.22;3.83;;;;;;;12.89;85.32;64307.91;5050527;28;20213;-57
2023/05/01 00:28:55;;;;;;;4.15;3.85;;;;;;;12.79;86.02;64297.47;5050571;28;20300;-55
2023/05/01 00:31:24;;;;;;;6.10;4.00;;;;;;;12.78;85.69;64291.31;5051535;28;20648;-59
2023/05/01 00:33:49;;;;;;;5.25;4.07;;;;;;;12.75;84.25;64292.53;5053909;28;20217;-59
2023/05/01 00:36:15;;;;;;;5.30;3.92;;;;;;;12.68;85.67;64282.34;5053888;28;20204;-56
2023/05/01 00:38:40;;;;;;;4.47;3.95;;;;;;;12.70;86.43;64285.06;5053372;28;20607;-59
2023/05/01 00:41:06;;;;;;;4.40;3.60;;;;;;;12.73;86.84;64290.34;5053818;28;20197;-60
2023/05/01 00:43:31;;;;;;;4.30;3.90;;;;;;;12.73;86.75;64288.34;5052508;28;20221;-60
2023/05/01 00:45:56;;;;;;;4.20;3.80;;;;;;;12.72;87.31;64289.25;5033972;28;20182;-56
2023/05/01 00:48:22;;;;;;;4.90;3.80;;;;;;;12.73;87.32;64287.81;5033822;28;20687;-56
2023/05/01 00:50:48;;;;;;;5.03;3.67;;;;;;;12.68;87.01;64282.88;5033709;28;20239;-57
2023/05/01 00:53:13;;;;;;;5.27;4.30;;;;;;;12.67;86.40;64284.31;5033692;28;20221;-57
2023/05/01 00:55:41;;;;;;;7.22;4.07;;;;;;;12.55;86.54;64271.16;5033472;28;20178;-58
2023/05/01 00:58:07;;;;;;;5.45;4.07;;;;;;;12.48;87.29;64263.47;5033389;28;20214;-56
2023/05/01 01:00:33;;;;;;;5.13;4.63;;;;;;;12.39;88.47;64251.63;5033517;28;20207;-57
2023/05/01 01:02:58;;;;;;;5.35;4.30;;;;;;;12.30;89.33;64241.22;5033541;28;20214;-56
2023/05/01 01:05:28;;;;;;;4.95;4.18;;;;;;;12.36;88.84;64245.25;5015836;28;20240;-56
2023/05/01 01:08:15;;;;;;;5.80;4.25;;;;;;;12.40;88.66;64252.19;5016339;28;20198;-56
2023/05/01 01:10:48;;;;;;;5.23;4.40;;;;;;;12.40;88.37;64252.72;5033486;28;20202;-56
2023/05/01 01:13:26;;;;;;;4.93;4.15;;;;;;;12.39;88.33;64249.09;5014697;28;20236;-58
2023/05/01 01:16:12;;;;;;;6.77;4.20;;;;;;;12.47;88.65;64259.84;5033392;28;20173;-56
2023/05/01 01:18:41;;;;;;;4.82;4.20;;;;;;;12.50;88.39;64265.66;5033204;28;20214;-55
2023/05/01 01:21:19;;;;;;;6.20;4.30;;;;;;;12.56;88.44;64267.72;5033351;28;20718;-55
2023/05/01 01:23:59;;;;;;;6.78;5.10;;;;;;;12.42;89.16;64257.44;5033088;28;20721;-59
2023/05/01 01:26:48;;;;;;;5.32;4.50;;;;;;;12.34;89.88;64246.13;5033186;28;20619;-59
2023/05/01 01:29:31;;;;;;;6.40;4.93;;;;;;;12.54;89.19;64265.53;5002533;28;20264;-57
2023/05/01 01:32:00;;;;;;;11.40;8.68;;;;;;;12.54;89.44;64267.53;5033007;28;20213;-56
2023/05/01 01:34:33;;;;;;;18.70;14.18;;;;;;;12.35;92.98;64247.25;5015333;28;20228;-56
2023/05/01 01:37:03;;;;;;;19.52;14.25;;;;;;;12.10;94.78;64219.81;5033374;28;20213;-57
2023/05/01 01:39:35;;;;;;;20.77;16.70;;;;;;;11.84;96.36;64193.84;5033429;28;20221;-57
2023/05/01 01:42:07;;;;;;;25.07;16.43;;;;;;;11.67;97.51;64173.25;5032500;28;20194;-57
2023/05/01 01:44:37;;;;;;;23.43;16.90;;;;;;;11.48;99.43;64154.38;5014660;28;20308;-57
2023/05/01 01:47:07;;;;;;;19.03;14.47;;;;;;;11.40;100.00;64146.16;5032803;28;20221;-59
2023/05/01 01:49:36;;;;;;;21.67;15.33;;;;;;;11.41;100.00;64147.25;5033252;28;20289;-58
2023/05/01 01:52:04;;;;;;;20.52;14.48;;;;;;;11.60;98.48;64167.53;5032668;28;20277;-59
2023/05/01 01:54:39;;;;;;;20.57;14.43;;;;;;;11.74;97.80;64180.91;5033119;28;20613;-58
2023/05/01 01:57:06;;;;;;;17.03;11.30;;;;;;;11.72;97.38;64178.16;5032656;28;20572;-59
2023/05/01 01:59:33;;;;;;;13.67;11.40;;;;;;;11.33;98.59;64138.50;5032798;28;20218;-57
2023/05/01 02:02:00;;;;;;;13.13;9.10;;;;;;;11.18;98.64;64121.50;5032452;28;20236;-57
2023/05/01 02:04:27;;;;;;;8.03;7.03;;;;;;;11.10;98.71;64112.75;5032566;28;20226;-57
2023/05/01 02:06:57;;;;;;;8.80;7.07;;;;;;;11.16;97.42;64116.81;5032580;28;20220;-56
2023/05/01 02:09:24;;;;;;;8.83;7.20;;;;;;;11.27;97.61;64131.91;5032447;28;20301;-56
2023/05/01 02:11:52;;;;;;;8.20;5.80;;;;;;;11.35;96.22;64140.16;5032456;28;20217;-60
2023/05/01 02:14:18;;;;;;;12.20;6.67;;;;;;;11.25;97.00;64129.19;5014519;28;20265;-58
2023/05/01 02:16:45;;;;;;;7.80;5.73;;;;;;;11.33;97.21;64135.44;5032348;28;20695;-61
2023/05/01 02:19:13;;;;;;;6.03;5.43;;;;;;;11.52;96.09;64156.78;5032697;28;20222;-57
2023/05/01 02:21:40;;;;;;;7.60;5.80;;;;;;;11.50;95.75;64154.03;5032282;28;20194;-60
2023/05/01 02:24:06;;;;;;;9.70;5.60;;;;;;;11.21;97.03;64125.34;5032154;28;20225;-60
2023/05/01 02:26:36;;;;;;;9.77;5.83;;;;;;;11.30;96.77;64135.22;5032358;28;20213;-56
2023/05/01 02:29:01;;;;;;;9.50;5.40;;;;;;;11.13;97.67;64113.53;5014244;28;20300;-56
2023/05/01 02:31:28;;;;;;;15.60;5.40;;;;;;;11.07;97.94;64107.50;5032263;28;20599;-56
2023/05/01 02:33:53;;;;;;;6.07;5.47;;;;;;;11.07;98.74;64107.50;5032383;28;20302;-58
2023/05/01 02:36:18;;;;;;;6.60;5.33;;;;;;;11.22;97.49;64123.94;5032048;28;20280;-57
2023/05/01 02:38:46;;;;;;;6.00;4.80;;;;;;;11.10;97.00;64110.78;5032341;28;20222;-59
2023/05/01 02:41:14;;;;;;;9.43;4.30;;;;;;;11.15;96.03;64116.25;5032011;28;20593;-61
2023/05/01 02:43:41;;;;;;;6.27;4.77;;;;;;;11.08;97.25;64108.59;5014081;28;20237;-57
2023/05/01 02:46:09;;;;;;;6.10;4.60;;;;;;;11.05;97.21;64102.78;5032115;28;20226;-57
2023/05/01 02:48:37;;;;;;;6.33;4.83;;;;;;;11.03;97.51;64105.63;5031945;28;20256;-56
2023/05/01 02:51:03;;;;;;;11.10;5.97;;;;;;;10.92;98.83;64091.63;5031763;28;20243;-57
2023/05/01 02:53:31;;;;;;;10.53;8.17;;;;;;;10.97;99.26;64094.56;5031819;28;20222;-60
2023/05/01 02:55:57;;;;;;;10.77;7.93;;;;;;;11.08;98.90;64105.53;5031657;28;20584;-58
2023/05/01 02:58:22;;;;;;;10.20;7.00;;;;;;;11.01;100.00;64102.91;5031727;28;20218;-60
2023/05/01 03:00:48;;;;;;;9.10;7.87;;;;;;;10.92;100.00;64091.63;5031806;28;20549;-58
2023/05/01 03:03:14;;;;;;;12.00;7.80;;;;;;;10.85;100.00;64085.91;5031475;28;20218;-57
2023/05/01 03:05:40;;;;;;;12.33;9.00;;;;;;;10.98;100.00;64095.13;5031579;28;20205;-58
2023/05/01 03:08:06;;;;;;;10.60;9.03;;;;;;;11.04;100.00;64106.19;5031501;28;20225;-56
2023/05/01 03:10:32;;;;;;;12.73;10.17;;;;;;;10.98;100.00;64095.13;5031326;28;20194;-55
2023/05/01 03:12:57;;;;;;;12.57;9.90;;;;;;;10.88;100.00;64089.78;5031570;28;20615;-56
2023/05/01 03:15:23;;;;;;;12.63;9.43;;;;;;;11.05;99.69;64107.81;5031606;28;20190;-56
2023/05/01 03:17:48;;;;;;;14.17;8.63;;;;;;;11.17;98.16;64120.97;5031554;28;20213;-56
2023/05/01 03:20:13;;;;;;;10.77;6.80;;;;;;;11.06;98.03;64105.84;5031541;28;20681;-59
2023/05/01 03:22:40;;;;;;;12.37;6.57;;;;;;;10.75;98.37;64074.97;5031338;28;20205;-57
2023/05/01 03:25:05;;;;;;;11.00;5.43;;;;;;;10.61;98.17;64057.69;5031179;28;20226;-56
2023/05/01 03:27:31;;;;;;;8.10;5.93;;;;;;;10.36;98.65;64032.84;5031416;28;20583;-56
2023/05/01 03:29:56;;;;;;;11.27;6.27;;;;;;;10.21;99.19;64013.34;5031239;28;20323;-58
2023/05/01 03:32:22;;;;;;;10.77;6.67;;;;;;;10.23;100.00;64018.06;5031194;28;20229;-56
2023/05/01 03:34:47;;;;;;;11.50;7.00;;;;;;;10.31;100.00;64024.84;5031036;28;20720;-56
2023/05/01 03:37:14;;;;;;;10.47;7.17;;;;;;;10.23;100.00;64016.09;5031210;28;20190;-55
2023/05/01 03:39:39;;;;;;;7.97;6.63;;;;;;;10.04;100.00;63995.28;5031516;28;20723;-58
2023/05/01 03:42:05;;;;;;;8.40;6.00;;;;;;;9.94;100.00;63984.88;5031094;28;20248;-59
2023/05/01 03:44:31;;;;;;;7.37;5.57;;;;;;;10.00;100.00;63990.91;5031241;28;20225;-57
2023/05/01 03:46:57;;;;;;;8.70;5.87;;;;;;;9.86;100.00;63978.66;5031185;28;20185;-60
2023/05/01 03:49:23;;;;;;;8.17;5.00;;;;;;;10.21;99.49;64013.91;5031101;28;20582;-58
2023/05/01 03:51:48;;;;;;;7.07;4.30;;;;;;;10.09;99.37;64003.81;5030949;28;20197;-57
2023/05/01 03:54:14;;;;;;;11.77;5.13;;;;;;;9.89;99.09;63984.47;5031082;28;20683;-56
2023/05/01 03:56:39;;;;;;;7.20;4.63;;;;;;;9.78;99.55;63967.38;5031045;28;20543;-56
2023/05/01 03:59:05;;;;;;;4.83;4.27;;;;;;;9.82;100.00;63969.25;5012913;28;20572;-56
2023/05/01 04:01:32;;;;;;;7.93;4.33;;;;;;;9.82;99.92;63968.69;5013199;28;20213;-59
2023/05/01 04:03:58;;;;;;;5.80;3.53;;;;;;;9.77;100.00;63966.31;5031006;28;20221;-56
2023/05/01 04:06:24;;;;;;;8.37;4.37;;;;;;;9.73;100.00;63963.91;5032146;28;20197;-55
2023/05/01 04:08:49;;;;;;;7.53;4.87;;;;;;;9.61;100.00;63951.31;5016619;28;20691;-55
2023/05/01 04:11:15;;;;;;;7.17;4.30;;;;;;;9.83;100.00;63972.88;5016649;28;20192;-56
2023/05/01 04:13:40;;;;;;;4.53;4.10;;;;;;;9.87;100.00;63977.25;5034446;28;20206;-57
2023/05/01 04:16:06;;;;;;;5.57;4.60;;;;;;;9.88;99.01;63980.28;5016444;28;20221;-58
2023/05/01 04:18:31;;;;;;;5.27;4.37;;;;;;;10.12;98.43;64004.06;5034230;28;20221;-59
2023/05/01 04:20:57;;;;;;;6.00;4.60;;;;;;;10.08;97.25;64002.16;5034380;28;20186;-63
2023/05/01 04:23:22;;;;;;;6.03;4.30;;;;;;;10.16;97.33;64012.94;5034120;28;20217;-56
2023/05/01 04:25:48;;;;;;;6.53;4.87;;;;;;;10.16;97.46;64010.41;5034179;28;20217;-57
2023/05/01 04:28:13;;;;;;;5.57;4.77;;;;;;;9.96;99.49;63989.59;5034292;28;20268;-56
2023/05/01 04:30:39;;;;;;;7.80;4.67;;;;;;;10.30;98.17;64023.22;5034228;28;20706;-57
2023/05/01 04:33:10;;;;;;;6.33;4.70;;;;;;;10.45;97.49;64037.09;5033854;28;20214;-61
2023/05/01 04:35:39;;;;;;;7.93;4.97;;;;;;;10.49;97.54;64047.06;5033981;28;20235;-58
2023/05/01 04:38:06;;;;;;;9.27;4.83;;;;;;;10.47;98.15;64044.88;5034023;28;20210;-62
2023/05/01 04:40:31;;;;;;;5.30;4.43;;;;;;;10.65;96.53;64061.50;5034049;28;20193;-58
2023/05/01 04:42:57;;;;;;;6.53;4.97;;;;;;;10.67;96.64;64066.22;5015946;28;20203;-58
2023/05/01 04:45:22;;;;;;;7.33;5.33;;;;;;;10.88;94.93;64087.25;5033786;28;20206;-59
2023/05/01 04:47:47;;;;;;;6.23;4.87;;;;;;;11.10;93.60;64115.28;5034009;28;20194;-57
2023/05/01 04:50:13;;;;;;;6.47;4.60;;;;;;;11.26;92.88;64130.84;5016154;28;20201;-57
2023/05/01 04:52:38;;;;;;;6.17;4.70;;;;;;;11.09;94.47;64112.19;5033573;28;20178;-56
2023/05/01 04:55:04;;;;;;;7.03;4.50;;;;;;;11.06;94.93;64103.88;5033890;28;20198;-56
2023/05/01 04:57:30;;;;;;;7.80;4.87;;;;;;;10.99;96.58;64101.25;5033555;28;20256;-57
2023/05/01 04:59:55;;;;;;;7.67;5.07;;;;;;;11.11;95.35;64111.88;5033503;28;20237;-58
2023/05/01 05:02:21;;;;;;;7.30;5.03;;;;;;;11.29;94.56;64134.09;5033657;28;20206;-60
2023/05/01 05:04:46;;;;;;;8.13;5.60;;;;;;;11.37;94.93;64139.81;5033360;28;20601;-56
2023/05/01 05:07:12;;;;;;;8.63;5.23;;;;;;;11.50;93.58;64154.03;5033643;28;20236;-58
2023/05/01 05:09:37;;;;;;;8.77;5.63;;;;;;;11.43;94.61;64149.44;5033298;28;20600;-58
2023/05/01 05:12:04;;;;;;;9.50;6.30;;;;;;;11.50;94.81;64154.59;5015665;28;20279;-57
2023/05/01 05:14:29;;;;;;;7.90;4.97;;;;;;;11.78;93.18;64184.75;5033687;28;20699;-59
2023/05/01 05:16:55;;;;;;;8.73;5.63;;;;;;;11.81;92.31;64188.03;5032636;28;20193;-55
2023/05/01 05:19:20;;;;;;;11.40;5.50;;;;;;;11.70;93.77;64176.53;5032737;28;20308;-56
2023/05/01 05:21:46;;;;;;;8.40;6.30;;;;;;;11.62;94.71;64170.28;5033273;28;20545;-59
2023/05/01 05:24:12;;;;;;;11.30;6.27;;;;;;;11.70;94.38;64175.97;5033382;28;20242;-60
2023/05/01 05:26:38;;;;;;;10.67;6.87;;;;;;;11.69;94.37;64175.44;5032993;28;20190;-57
2023/05/01 05:29:03;;;;;;;6.97;6.00;;;;;;;11.81;94.17;64188.03;5032852;28;20594;-57
2023/05/01 05:31:29;;;;;;;8.27;6.07;;;;;;;11.74;95.07;64183.44;5033401;28;20190;-58
2023/05/01 05:33:54;;;;;;;7.97;6.90;;;;;;;11.80;95.45;64186.94;5033038;28;20599;-56
2023/05/01 05:36:20;;;;;;;10.13;6.80;;;;;;;11.92;94.98;64200.09;5032966;28;20194;-57
2023/05/01 05:38:45;;;;;;;8.33;7.00;;;;;;;11.79;96.14;64183.31;5033115;28;20297;-56
2023/05/01 05:41:11;;;;;;;10.03;7.40;;;;;;;11.69;97.39;64177.41;5015418;28;20281;-56
2023/05/01 05:43:36;;;;;;;9.17;7.30;;;;;;;11.62;98.34;64164.66;5015237;28;20267;-60
2023/05/01 05:46:01;;;;;;;10.53;7.50;;;;;;;11.64;98.86;64172.47;5032842;28;20253;-60
2023/05/01 05:48:27;;;;;;;10.37;8.10;;;;;;;11.73;98.70;64182.34;5032718;28;20560;-59
2023/05/01 05:50:52;;;;;;;8.47;7.63;;;;;;;11.80;98.38;64186.94;5032868;28;20201;-58
2023/05/01 05:53:18;;;;;;;10.27;8.13;;;;;;;11.92;97.32;64199.56;5032605;28;20210;-60
2023/05/01 05:55:46;;;;;;;9.03;7.67;;;;;;;12.04;96.49;64212.72;5032797;28;20688;-57
2023/05/01 05:58:13;;;;;;;14.07;8.00;;;;;;;12.19;96.41;64234.75;5032836;28;20706;-57
2023/05/01 06:00:38;;;;;;;12.03;8.00;;;;;;;12.17;96.71;64226.94;5032492;28;20226;-58
2023/05/01 06:03:04;;;;;;;9.30;7.70;;;;;;;12.60;93.72;64274.13;5032553;28;20264;-60
2023/05/01 06:05:29;;;;;;;14.47;8.43;;;;;;;12.62;94.48;64276.31;5032610;28;20201;-60
2023/05/01 06:07:54;;;;;;;10.90;7.60;;;;;;;12.65;94.52;64279.59;5032542;28;20205;-57
2023/05/01 06:10:20;;;;;;;10.95;8.07;;;;;;;12.75;93.61;64293.09;5032547;28;20663;-57
2023/05/01 06:12:47;;;;;;;11.37;7.67;;;;;;;12.74;93.79;64291.44;5032357;28;20209;-58
2023/05/01 06:15:15;;;;;;;9.45;7.95;;;;;;;12.80;92.74;64295.50;5014452;28;20653;-58
2023/05/01 06:17:41;;;;;;;12.35;7.63;;;;;;;13.04;91.92;64324.94;5032499;28;20190;-57
2023/05/01 06:20:08;;;;;;;9.30;8.13;;;;;;;12.96;92.91;64315.56;5032537;28;20273;-57
2023/05/01 06:22:33;;;;;;;7.93;7.15;;;;;;;13.16;91.86;64335.00;5032244;28;20691;-59
2023/05/01 06:24:59;;;;;;;9.88;7.90;;;;;;;13.18;91.27;64335.22;5032038;28;20218;-60
2023/05/01 06:27:25;;;;;;;9.88;6.93;;;;;;;13.46;90.20;64367.94;5032383;28;20194;-60
2023/05/01 06:29:50;;;;;;;9.93;6.75;;;;;;;13.56;89.06;64378.38;5031816;28;20247;-59
2023/05/01 06:32:16;;;;;;;15.65;8.10;;;;;;;13.73;87.35;64397.59;5032292;28;20552;-57
2023/05/01 06:34:41;;;;;;;10.63;9.13;;;;;;;13.63;89.15;64386.59;5032077;28;20240;-60
2023/05/01 06:37:07;;;;;;;10.45;7.60;;;;;;;13.59;87.73;64381.66;5014620;28;20190;-57
2023/05/01 06:39:32;;;;;;;8.10;7.28;;;;;;;13.71;88.79;64395.41;5031910;28;20210;-56
2023/05/01 06:41:58;;;;;;;13.32;8.57;;;;;;;14.05;87.06;64430.19;5031944;28;20573;-58
2023/05/01 06:44:23;;;;;;;9.25;8.23;;;;;;;14.16;86.45;64444.81;5031975;28;20233;-57
2023/05/01 06:46:49;;;;;;;9.65;8.20;;;;;;;14.32;86.79;64458.78;5032053;28;20205;-57
2023/05/01 06:49:14;;;;;;;11.38;8.70;;;;;;;14.27;86.14;64458.88;5031970;28;20220;-55
2023/05/01 06:51:39;;;;;;;9.30;7.85;;;;;;;14.08;85.07;64436.00;5031876;28;20211;-59
2023/05/01 06:54:05;;;;;;;9.23;7.88;;;;;;;14.18;84.54;64446.47;5031919;28;20214;-56
2023/05/01 06:56:31;;;;;;;10.63;7.75;;;;;;;14.37;82.54;64464.81;5031795;28;20250;-57
2023/05/01 06:58:56;;;;;;;9.98;7.85;;;;;;;14.46;82.31;64477.25;5031693;28;20210;-56
2023/05/01 07:01:29;;;;;;;11.80;9.43;;;;;;;14.34;85.20;64464.06;5031650;28;20256;-55
2023/05/01 07:03:54;;;;;;;15.43;9.40;;;;;;;14.33;85.31;64462.97;5031855;28;20225;-56
2023/05/01 07:06:20;;;;;;;11.93;8.60;;;;;;;14.44;83.96;64474.50;5031563;28;20198;-58
2023/05/01 07:08:45;;;;;;;12.85;9.60;;;;;;;14.48;83.60;64476.34;5031750;28;20217;-58
2023/05/01 07:11:11;;;;;;;13.30;9.00;;;;;;;14.58;83.18;64490.44;5031562;28;20676;-57
2023/05/01 07:13:37;;;;;;;13.23;9.60;;;;;;;14.84;82.35;64519.00;5031379;28;20292;-58
2023/05/01 07:16:02;;;;;;;15.02;8.38;;;;;;;15.12;81.94;64552.31;5014142;28;20190;-57
2023/05/01 07:18:34;;;;;;;13.73;9.32;;;;;;;15.44;80.59;64581.34;5031654;28;20233;-57
2023/05/01 07:20:59;;;;;;;11.05;9.85;;;;;;;15.31;79.94;64569.59;5031591;28;20340;-58
2023/05/01 07:23:25;;;;;;;11.18;9.50;;;;;;;15.19;80.54;64556.91;5031103;28;20289;-57
2023/05/01 07:25:52;;;;;;;11.00;8.75;;;;;;;15.50;78.70;64587.94;5031292;28;20182;-57
2023/05/01 07:28:19;;;;;;;11.27;8.60;;;;;;;15.35;78.35;64574.50;5031395;28;20206;-58
2023/05/01 07:30:44;;;;;;;12.68;8.43;;;;;;;15.60;77.34;64604.03;5031330;28;20663;-57
2023/05/01 07:33:10;;;;;;;10.60;8.48;;;;;;;15.86;77.11;64630.09;5031315;28;20224;-59
2023/05/01 07:35:35;;;;;;;11.77;8.50;;;;;;;16.23;75.76;64668.28;5031132;28;20189;-59
2023/05/01 07:38:01;;;;;;;11.65;8.43;;;;;;;16.55;74.73;64703.53;5031072;28;20569;-57
2023/05/01 07:40:26;;;;;;;13.50;8.60;;;;;;;16.32;73.90;64678.16;5030286;28;20266;-56
2023/05/01 07:42:52;;;;;;;13.38;9.75;;;;;;;16.49;73.43;64694.38;5031000;28;20185;-58
2023/05/01 07:45:17;;;;;;;15.90;10.18;;;;;;;16.69;71.27;64718.38;5031122;28;20287;-57
2023/05/01 07:47:43;;;;;;;11.40;8.45;;;;;;;17.13;72.05;64769.38;5030750;28;20328;-57
2023/05/01 07:50:12;;;;;;;11.27;8.23;;;;;;;16.73;70.29;64723.34;5031056;28;20194;-56
2023/05/01 07:52:38;;;;;;;11.27;9.00;;;;;;;16.79;71.26;64729.41;5030754;28;20178;-58
2023/05/01 07:55:04;;;;;;;10.57;7.88;;;;;;;16.82;70.49;64732.16;5031075;28;20272;-59
2023/05/01 07:57:32;;;;;;;12.70;8.20;;;;;;;17.17;70.11;64773.25;5030969;28;20244;-56
2023/05/01 07:59:58;;;;;;;9.75;7.78;;;;;;;17.27;69.23;64781.72;5030680;28;20676;-59
2023/05/01 08:02:23;;;;;;;16.65;9.18;;;;;;;17.25;67.57;64780.06;5030668;28;20193;-57
2023/05/01 08:04:49;;;;;;;9.32;7.20;;;;;;;17.68;67.07;64826.91;5030680;28;20221;-57
2023/05/01 08:07:14;;;;;;;8.93;7.43;;;;;;;18.04;66.70;64869.16;5030823;28;20182;-56
2023/05/01 08:09:40;;;;;;;8.95;6.78;;;;;;;18.16;67.71;64879.84;5030578;28;20233;-58
2023/05/01 08:12:05;;;;;;;8.88;6.60;;;;;;;17.97;63.28;64864.00;5013139;28;20182;-58
2023/05/01 08:14:31;;;;;;;9.27;6.80;;;;;;;17.96;62.46;64857.78;5030990;28;20568;-62
2023/05/01 08:16:57;;;;;;;8.98;7.35;;;;;;;17.83;64.18;64845.44;5030746;28;20193;-56
2023/05/01 08:19:22;;;;;;;10.98;6.45;;;;;;;18.14;66.02;64880.19;5030729;28;20596;-58
2023/05/01 08:21:48;;;;;;;7.05;5.40;;;;;;;18.35;59.25;64898.25;5030524;28;20227;-56
2023/05/01 08:24:13;;;;;;;4.93;4.20;;;;;;;18.37;58.79;64905.56;5030390;28;20240;-56
2023/05/01 08:26:39;;;;;;;5.82;4.53;;;;;;;18.49;60.69;64915.69;5030376;28;20186;-59
2023/05/01 08:29:04;;;;;;;5.40;4.20;;;;;;;18.81;60.75;64951.00;5012604;28;20356;-58
2023/05/01 08:31:30;;;;;;;6.78;4.90;;;;;;;18.93;58.74;64966.25;5030430;28;20201;-60
2023/05/01 08:33:55;;;;;;;8.23;4.90;;;;;;;19.00;60.64;64971.97;5030768;28;20217;-58
2023/05/01 08:36:21;;;;;;;5.82;4.35;;;;;;;18.81;57.49;64951.00;5030548;28;20190;-58
2023/05/01 08:38:47;;;;;;;6.47;4.80;;;;;;;18.71;58.04;64939.41;5030394;28;20216;-61
2023/05/01 08:41:21;;;;;;;6.72;4.90;;;;;;;18.92;58.05;64960.59;5012790;28;20663;-61
2023/05/01 08:43:47;;;;;;;5.30;4.80;;;;;;;19.35;60.80;65009.53;5029963;28;20232;-58
2023/05/01 08:46:35;;;;;;;7.72;5.18;;;;;;;19.21;58.38;64992.03;5030170;28;20204;-59
2023/05/01 08:49:04;;;;;;;6.57;4.63;;;;;;;19.15;58.78;64985.41;5030484;28;20225;-61
2023/05/01 08:51:32;;;;;;;6.55;4.55;;;;;;;19.31;59.61;65007.63;5030275;28;20175;-58
2023/05/01 08:54:00;;;;;;;9.85;3.83;;;;;;;19.61;59.87;65038.22;5033563;28;20225;-60
2023/05/01 08:56:27;;;;;;;8.98;3.38;;;;;;;19.71;53.91;65049.28;5033778;28;20186;-58
2023/05/01 08:58:54;;;;;;;3.63;3.22;;;;;;;19.94;53.20;65074.66;5033853;28;20691;-57
2023/05/01 09:01:21;;;;;;;4.97;4.07;;;;;;;20.05;52.38;65086.81;5033486;28;20190;-59
2023/05/01 09:03:48;;;;;;;2.90;2.33;;;;;;;20.24;52.15;65107.28;5033515;28;20230;-58
2023/05/01 09:06:14;;;;;;;2.90;2.53;;;;;;;20.24;50.69;65104.72;5033420;28;20190;-57
2023/05/01 09:08:40;;;;;;;3.10;2.85;;;;;;;20.31;49.51;65115.00;5033742;28;20240;-58
2023/05/01 09:11:05;;;;;;;3.33;2.83;;;;;;;20.32;49.65;65116.66;5033383;28;20190;-58
2023/05/01 09:13:32;;;;;;;5.28;3.17;;;;;;;20.61;52.21;65148.72;5033354;28;20217;-60
2023/05/01 09:15:59;;;;;;;3.72;2.58;;;;;;;20.85;49.65;65174.69;5033493;28;20192;-59
2023/05/01 09:18:24;;;;;;;5.10;3.00;;;;;;;21.10;49.76;65201.78;5033330;28;20214;-58
2023/05/01 09:20:50;;;;;;;6.10;3.35;;;;;;;21.12;48.81;65204.56;5033512;28;20259;-58
2023/05/01 09:23:15;;;;;;;3.65;3.25;;;;;;;21.22;49.36;65217.63;5033587;28;20224;-57
2023/05/01 09:25:42;;;;;;;3.35;2.97;;;;;;;21.27;48.61;65220.59;5015476;28;20188;-57
2023/05/01 09:28:07;;;;;;;3.45;2.50;;;;;;;21.23;48.72;65216.19;5032975;28;20372;-57
2023/05/01 09:30:37;;;;;;;7.28;5.72;;;;;;;21.41;47.04;65233.53;5033061;28;20656;-56
2023/05/01 09:33:10;;;;;;;3.55;2.97;;;;;;;21.61;47.28;65261.31;5033039;28;20284;-60
2023/05/01 09:35:53;;;;;;;4.90;2.70;;;;;;;22.00;47.48;65298.78;5033300;28;20174;-57
2023/05/01 09:38:23;;;;;;;4.75;2.50;;;;;;;22.00;46.36;65298.25;5032922;28;20217;-62
2023/05/01 09:40:49;;;;;;;4.40;3.30;;;;;;;22.09;50.42;65310.78;5032822;28;20224;-58
2023/05/01 09:43:33;;;;;;;8.02;3.08;;;;;;;22.02;46.50;65303.03;5047353;23;20697;-58
2023/05/01 09:46:09;;;;;;;4.03;3.00;;;;;;;22.29;45.71;65335.47;5072656;28;20709;-57
2023/05/01 09:48:36;;;;;;;3.50;2.55;;;;;;;22.98;46.35;65408.78;5064693;28;20732;-57
2023/05/01 09:51:21;;;;;;;3.45;2.83;;;;;;;23.28;44.81;65442.56;5052910;28;20724;-58
2023/05/01 09:53:46;;;;;;;2.50;2.30;;;;;;;23.33;44.95;65445.53;5052652;28;20565;-57
2023/05/01 09:56:12;;;;;;;3.25;2.55;;;;;;;23.29;45.34;65443.66;5052421;28;20251;-59
2023/05/01 09:58:38;;;;;;;3.13;2.15;;;;;;;23.65;45.11;65482.47;5052676;28;20630;-60
2023/05/01 10:01:03;;;;;;;4.15;2.53;;;;;;;23.78;41.40;65494.31;5052610;28;20193;-58
2023/05/01 10:03:29;;;;;;;2.88;2.58;;;;;;;23.64;43.99;65481.91;5051352;28;20660;-58
2023/05/01 10:05:56;;;;;;;2.80;2.50;;;;;;;23.94;43.57;65514.59;5052793;28;20679;-55
2023/05/01 10:08:21;;;;;;;4.45;2.33;;;;;;;23.02;45.07;65413.78;5034490;28;20210;-58
2023/05/01 10:11:04;;;;;;;2.83;2.50;;;;;;;22.76;44.27;65381.84;5052225;28;20186;-60
2023/05/01 10:13:29;;;;;;;2.28;1.90;;;;;;;22.97;42.31;65410.22;5052459;28;20682;-58
2023/05/01 10:15:55;;;;;;;2.60;2.40;;;;;;;23.13;41.26;65425.94;5052312;28;20201;-56
2023/05/01 10:18:22;;;;;;;5.47;2.85;;;;;;;23.34;40.77;65449.25;5052485;28;20216;-58
2023/05/01 10:20:48;;;;;;;8.45;6.53;;;;;;;23.32;40.50;65444.44;5052260;28;20201;-61
2023/05/01 10:23:13;;;;;;;2.40;2.20;;;;;;;22.57;42.36;65363.91;5052396;28;20204;-57
2023/05/01 10:25:40;;;;;;;4.95;3.45;;;;;;;22.60;44.17;65367.25;5052107;28;20266;-58
2023/05/01 10:28:08;;;;;;;2.60;2.00;;;;;;;22.84;42.40;65388.69;5051999;28;20240;-58
2023/05/01 10:30:34;;;;;;;2.50;2.20;;;;;;;23.57;39.52;65471.59;5052365;28;20273;-58
2023/05/01 10:33:00;;;;;;;3.35;2.42;;;;;;;24.02;39.17;65520.91;5051902;28;20205;-60
2023/05/01 10:35:30;;;;;;;2.75;2.15;;;;;;;24.15;38.50;65537.91;5052089;28;20201;-60
2023/05/01 10:38:05;;;;;;;2.00;1.80;;;;;;;25.10;38.12;65639.63;5051978;28;20706;-56
2023/05/01 10:40:40;;;;;;;1.90;1.70;;;;;;;25.31;39.13;65665.53;5033906;28;20186;-59
2023/05/01 10:43:28;;;;;;;4.22;2.90;;;;;;;24.61;38.97;65586.34;5051865;28;20213;-60
2023/05/01 10:46:09;;;;;;;3.13;2.30;;;;;;;24.69;38.80;65594.66;5051843;28;20648;-59
2023/05/01 10:48:41;;;;;;;8.32;2.00;;;;;;;24.20;39.03;65540.88;5051496;28;20215;-59
2023/05/01 10:51:16;;;;;;;2.40;1.80;;;;;;;23.49;39.63;65464.75;5051840;28;20199;-60
2023/05/01 10:53:44;;;;;;;2.65;1.95;;;;;;;23.11;40.86;65423.72;5033619;28;20217;-60
2023/05/01 10:56:25;;;;;;;2.80;2.30;;;;;;;22.93;42.24;65403.78;5051671;28;20294;-58
2023/05/01 10:58:59;;;;;;;2.63;1.90;;;;;;;23.58;41.70;65472.69;5051739;28;20220;-60
2023/05/01 11:01:38;;;;;;;1.75;1.65;;;;;;;24.30;39.88;65554.53;5051701;28;20251;-58
2023/05/01 11:04:22;;;;;;;4.68;2.03;;;;;;;24.66;38.88;65593.94;5051816;28;20218;-57
2023/05/01 11:07:09;;;;;;;2.67;2.17;;;;;;;25.61;37.03;65693.69;5051586;28;20217;-60
2023/05/01 11:09:39;;;;;;;3.00;2.30;;;;;;;25.76;36.15;65716.03;5051587;28;20679;-57
2023/05/01 11:12:06;;;;;;;2.80;2.60;;;;;;;24.30;38.33;65551.44;5051381;28;20243;-56
2023/05/01 11:15:01;;;;;;;2.13;1.83;;;;;;;23.91;38.55;65511.28;5051277;28;20206;-57
2023/05/01 11:17:39;;;;;;;2.75;2.28;;;;;;;23.22;40.38;65432.78;5033445;28;20197;-59
2023/05/01 11:20:06;;;;;;;4.22;1.95;;;;;;;23.21;40.43;65434.81;5051535;28;20615;-57
2023/05/01 11:22:32;;;;;;;3.38;2.00;;;;;;;23.45;40.51;65458.31;5051434;28;20574;-57
2023/05/01 11:24:58;;;;;;;2.17;1.98;;;;;;;23.42;40.50;65457.53;5050968;28;20548;-57
2023/05/01 11:27:24;;;;;;;2.15;2.03;;;;;;;23.37;40.53;65452.00;5051366;28;20184;-57
2023/05/01 11:29:49;;;;;;;1.70;1.60;;;;;;;22.87;39.54;65396.59;5051376;28;20212;-58
2023/05/01 11:32:18;;;;;;;2.20;1.80;;;;;;;23.05;40.73;65414.50;5033438;28;20189;-58